Time;durP1;ratioP1;P1;durP2;ratioP2;P2;SDS_P1;SDS_P2;PMS_P1;PMS_P2;Temp;Humidity;BMP_temperature;BMP_pressure;BME280_temperature;BME280_humidity;BME280_pressure;Samples;Min_cycle;Max_cycle;Signal;HPM_P1;HPM_P2
2022/05/18 00:01:32;;;;;;;4.57;2.55;;;17.10;99.90;;;;;;5056731;28;20032;-78
2022/05/18 00:03:57;;;;;;;5.47;2.45;;;17.00;99.90;;;;;;5077142;28;20044;-78
2022/05/18 00:06:23;;;;;;;5.03;2.75;;;17.00;99.90;;;;;;5068144;28;20505;-77
2022/05/18 00:08:49;;;;;;;5.97;3.30;;;17.00;99.90;;;;;;5071912;28;20115;-78
2022/05/18 00:11:16;;;;;;;5.22;4.40;;;17.00;99.90;;;;;;5071363;28;20032;-78
2022/05/18 00:13:46;;;;;;;5.30;3.10;;;16.90;99.90;;;;;;5074160;28;20036;-78
2022/05/18 00:16:13;;;;;;;6.03;2.45;;;16.90;99.90;;;;;;5067727;28;20052;-78
2022/05/18 00:18:38;;;;;;;5.47;2.80;;;16.90;99.90;;;;;;5072198;28;20084;-78
2022/05/18 00:21:05;;;;;;;7.95;4.45;;;16.90;99.90;;;;;;5071765;28;20486;-78
2022/05/18 00:23:31;;;;;;;6.30;3.03;;;16.80;99.90;;;;;;5090801;28;20142;-78
2022/05/18 00:25:57;;;;;;;4.38;3.25;;;16.80;99.90;;;;;;5074323;28;20142;-78
2022/05/18 00:28:23;;;;;;;3.75;2.83;;;16.70;99.90;;;;;;5073871;28;20105;-78
2022/05/18 00:30:48;;;;;;;4.00;3.28;;;16.70;99.90;;;;;;5073590;28;20040;-77
2022/05/18 00:33:14;;;;;;;5.50;2.65;;;16.70;99.90;;;;;;5073321;28;20485;-78
2022/05/18 00:35:41;;;;;;;6.07;3.80;;;16.60;99.90;;;;;;5075920;28;20135;-78
2022/05/18 00:38:08;;;;;;;4.53;3.00;;;16.60;99.90;;;;;;5073677;28;21582;-78
2022/05/18 00:40:36;;;;;;;8.48;3.38;;;16.50;99.90;;;;;;5086918;28;20028;-77
2022/05/18 00:43:01;;;;;;;4.40;3.00;;;16.50;99.90;;;;;;5051280;28;20047;-78
2022/05/18 00:45:27;;;;;;;6.10;4.20;;;16.40;99.90;;;;;;5072652;28;20040;-78
2022/05/18 00:47:53;;;;;;;7.65;4.75;;;16.40;99.90;;;;;;5086733;28;20040;-78
2022/05/18 00:50:27;;;;;;;8.85;3.78;;;16.30;99.90;;;;;;5074882;28;20042;-78
2022/05/18 00:53:15;;;;;;;4.60;3.28;;;16.20;99.90;;;;;;5074949;28;20036;-78
2022/05/18 00:55:44;;;;;;;5.00;2.60;;;16.20;99.90;;;;;;5071119;28;20039;-78
2022/05/18 00:58:23;;;;;;;7.97;3.78;;;16.10;99.90;;;;;;5074660;28;20515;-78
2022/05/18 01:00:50;;;;;;;5.50;3.80;;;16.10;99.90;;;;;;5070741;28;20089;-77
2022/05/18 01:03:28;;;;;;;7.22;3.22;;;16.00;99.90;;;;;;5074841;28;20092;-78
2022/05/18 01:06:09;;;;;;;5.00;3.25;;;16.00;99.90;;;;;;5072026;28;20048;-79
2022/05/18 01:08:38;;;;;;;5.95;3.90;;;16.00;99.90;;;;;;5076520;28;20043;-78
2022/05/18 01:11:03;;;;;;;7.05;4.40;;;15.90;99.90;;;;;;5075598;28;20498;-78
2022/05/18 01:13:29;;;;;;;8.25;4.20;;;15.90;99.90;;;;;;5089754;28;20047;-78
2022/05/18 01:15:55;;;;;;;7.50;4.15;;;15.90;99.90;;;;;;5076883;28;20065;-78
2022/05/18 01:18:21;;;;;;;4.45;3.40;;;15.80;99.90;;;;;;5076944;28;20491;-79
2022/05/18 01:20:48;;;;;;;3.58;3.28;;;15.80;99.90;;;;;;5070003;28;20992;-78
2022/05/18 01:23:38;;;;;;;6.75;4.15;;;15.70;99.90;;;;;;5072034;28;20052;-78
2022/05/18 01:26:29;;;;;;;5.85;4.65;;;15.70;99.90;;;;;;5072298;28;20084;-78
2022/05/18 01:28:58;;;;;;;5.05;4.05;;;15.60;99.90;;;;;;5056602;28;20075;-78
2022/05/18 01:31:45;;;;;;;10.90;6.57;;;15.60;99.90;;;;;;5074891;28;20446;-78
2022/05/18 01:34:11;;;;;;;5.13;4.18;;;15.50;99.90;;;;;;5071653;28;20066;-78
2022/05/18 01:36:37;;;;;;;6.30;4.10;;;15.50;99.90;;;;;;5073899;28;20055;-78
2022/05/18 01:39:05;;;;;;;7.28;4.13;;;15.50;99.90;;;;;;5075033;28;20036;-78
2022/05/18 01:41:34;;;;;;;6.47;4.15;;;15.60;99.90;;;;;;5068602;28;20101;-78
2022/05/18 01:44:00;;;;;;;7.22;4.43;;;15.50;99.90;;;;;;5075678;28;20036;-78
2022/05/18 01:46:31;;;;;;;10.05;5.05;;;15.50;99.90;;;;;;5072831;28;20040;-78
2022/05/18 01:48:56;;;;;;;6.30;4.20;;;15.50;99.90;;;;;;5074937;28;20036;-78
2022/05/18 01:51:27;;;;;;;6.05;4.68;;;15.50;99.90;;;;;;5075679;28;20173;-78
2022/05/18 01:53:53;;;;;;;4.95;4.45;;;15.40;99.90;;;;;;5074179;28;20046;-79
2022/05/18 01:56:19;;;;;;;11.15;4.32;;;15.40;99.90;;;;;;5075321;28;20035;-79
2022/05/18 01:58:46;;;;;;;6.03;4.05;;;15.30;99.90;;;;;;5071973;28;20041;-78
2022/05/18 02:01:11;;;;;;;8.05;5.05;;;15.20;99.90;;;;;;5075395;28;20486;-78
2022/05/18 02:03:37;;;;;;;6.93;4.63;;;15.20;99.90;;;;;;5075451;28;20111;-79
2022/05/18 02:06:03;;;;;;;8.02;5.55;;;15.20;99.90;;;;;;5072110;28;20101;-78
2022/05/18 02:08:28;;;;;;;6.88;4.82;;;15.20;99.90;;;;;;5070718;28;20054;-78
2022/05/18 02:10:54;;;;;;;5.72;3.75;;;15.20;99.90;;;;;;5069976;28;20065;-78
2022/05/18 02:13:20;;;;;;;10.02;4.82;;;15.20;99.90;;;;;;5088349;28;20036;-78
2022/05/18 02:15:47;;;;;;;5.15;3.92;;;15.20;99.90;;;;;;5057991;28;20101;-79
2022/05/18 02:18:13;;;;;;;5.40;4.15;;;15.30;99.90;;;;;;5074704;28;20028;-78
2022/05/18 02:20:40;;;;;;;7.75;4.32;;;15.30;99.90;;;;;;5074795;28;20084;-78
2022/05/18 02:23:06;;;;;;;6.25;4.40;;;15.30;99.90;;;;;;5090761;28;20044;-79
2022/05/18 02:25:32;;;;;;;6.32;3.88;;;15.30;99.90;;;;;;5074399;28;20053;-78
2022/05/18 02:27:59;;;;;;;5.65;3.88;;;15.30;99.90;;;;;;5057227;28;20388;-78
2022/05/18 02:30:25;;;;;;;5.72;3.70;;;15.30;99.90;;;;;;5073357;28;20054;-79
2022/05/18 02:32:50;;;;;;;9.93;4.20;;;15.30;99.90;;;;;;5075750;28;20040;-79
2022/05/18 02:35:17;;;;;;;7.10;3.90;;;15.30;99.90;;;;;;5076450;28;20047;-79
2022/05/18 02:37:42;;;;;;;8.18;4.07;;;15.30;99.90;;;;;;5075292;28;20418;-79
2022/05/18 02:40:10;;;;;;;5.50;4.03;;;15.10;99.90;;;;;;5076748;28;20067;-79
2022/05/18 02:42:35;;;;;;;5.93;3.97;;;15.00;99.90;;;;;;5076953;28;20316;-79
2022/05/18 02:45:02;;;;;;;9.48;3.60;;;14.90;99.90;;;;;;5080428;28;20137;-79
2022/05/18 02:47:28;;;;;;;7.13;5.90;;;14.80;99.90;;;;;;5085255;28;20051;-79
2022/05/18 02:49:53;;;;;;;7.18;4.65;;;14.80;99.90;;;;;;5079006;28;20040;-79
2022/05/18 02:52:19;;;;;;;8.82;4.68;;;14.70;99.90;;;;;;5082446;28;20105;-79
2022/05/18 02:57:28;;;;;;;5.22;4.63;;;14.70;99.90;;;;;;5078256;28;20044;-79
2022/05/18 02:59:54;;;;;;;5.63;3.92;;;14.60;99.90;;;;;;5061676;28;20036;-79
2022/05/18 03:02:20;;;;;;;7.72;5.10;;;14.60;99.90;;;;;;5076491;28;20449;-79
2022/05/18 03:04:45;;;;;;;10.25;4.68;;;14.50;99.90;;;;;;5062915;28;20036;-79
2022/05/18 03:07:11;;;;;;;9.32;5.55;;;14.50;99.90;;;;;;5075763;28;20527;-79
2022/05/18 03:09:37;;;;;;;7.82;5.95;;;14.50;99.90;;;;;;5078350;28;20036;-79
2022/05/18 03:12:03;;;;;;;8.80;5.40;;;14.40;99.90;;;;;;5062395;28;20032;-79
2022/05/18 03:14:29;;;;;;;6.45;4.88;;;14.40;99.90;;;;;;5062852;28;20043;-78
2022/05/18 03:16:54;;;;;;;8.00;5.30;;;14.40;99.90;;;;;;5075336;28;20037;-79
2022/05/18 03:19:20;;;;;;;9.35;5.20;;;14.30;99.90;;;;;;5077563;28;20028;-78
2022/05/18 03:24:30;;;;;;;7.05;5.43;;;14.30;99.90;;;;;;5075789;28;20036;-79
2022/05/18 03:26:56;;;;;;;7.10;5.72;;;14.30;99.90;;;;;;5072379;28;20416;-78
2022/05/18 03:29:21;;;;;;;9.30;5.45;;;14.30;99.90;;;;;;5077855;28;20522;-79
2022/05/18 03:31:48;;;;;;;10.93;4.90;;;14.30;99.90;;;;;;5076848;28;20040;-79
2022/05/18 03:34:14;;;;;;;15.25;5.60;;;14.30;99.90;;;;;;5077093;28;20077;-79
2022/05/18 03:36:40;;;;;;;9.93;6.20;;;14.40;99.90;;;;;;5057632;28;20182;-79
2022/05/18 03:39:08;;;;;;;13.68;5.78;;;14.40;99.90;;;;;;5075414;28;20134;-78
2022/05/18 03:41:36;;;;;;;11.52;5.03;;;14.40;99.90;;;;;;5076001;28;20066;-79
2022/05/18 03:44:07;;;;;;;10.18;5.28;;;14.40;99.90;;;;;;5074724;28;20036;-79
2022/05/18 03:46:33;;;;;;;13.85;6.03;;;14.40;99.90;;;;;;5075029;28;20476;-79
2022/05/18 03:48:59;;;;;;;11.25;6.38;;;14.40;99.90;;;;;;5077314;28;20066;-79
2022/05/18 03:51:25;;;;;;;10.15;5.50;;;14.40;99.90;;;;;;5074203;28;20036;-78
2022/05/18 03:53:51;;;;;;;8.75;5.60;;;14.40;99.90;;;;;;5074030;28;20036;-79
2022/05/18 03:56:17;;;;;;;11.52;5.90;;;14.40;99.90;;;;;;5075098;28;20126;-79
2022/05/18 03:58:43;;;;;;;9.48;6.00;;;14.40;99.90;;;;;;5060474;28;20040;-79
2022/05/18 04:01:10;;;;;;;7.13;4.95;;;14.50;99.90;;;;;;5088042;28;20050;-79
2022/05/18 04:03:42;;;;;;;9.27;5.20;;;14.50;99.90;;;;;;5059843;28;20062;-79
2022/05/18 04:06:08;;;;;;;7.18;4.68;;;14.50;99.90;;;;;;5075938;28;20169;-79
2022/05/18 04:08:35;;;;;;;10.77;6.85;;;14.40;99.90;;;;;;5073999;28;20040;-79
2022/05/18 04:11:00;;;;;;;14.38;7.32;;;14.40;99.90;;;;;;5076385;28;20040;-79
2022/05/18 04:13:26;;;;;;;14.45;7.30;;;14.40;99.90;;;;;;5075708;28;20044;-80
2022/05/18 04:15:53;;;;;;;14.77;6.10;;;14.50;99.90;;;;;;5077292;28;20044;-79
2022/05/18 04:18:20;;;;;;;15.15;7.22;;;14.50;99.90;;;;;;5095157;28;20150;-79
2022/05/18 04:20:46;;;;;;;14.88;6.95;;;14.50;99.90;;;;;;5057830;28;20036;-79
2022/05/18 04:23:12;;;;;;;9.00;5.68;;;14.60;99.90;;;;;;5076397;28;20059;-79
2022/05/18 04:25:40;;;;;;;8.68;5.97;;;14.60;99.90;;;;;;5074726;28;20040;-79
2022/05/18 04:28:07;;;;;;;10.38;5.88;;;14.60;99.90;;;;;;5076530;28;20040;-79
2022/05/18 04:30:33;;;;;;;9.90;5.50;;;14.60;99.90;;;;;;5077732;28;20055;-79
2022/05/18 04:32:59;;;;;;;7.55;6.00;;;14.70;99.90;;;;;;5075555;28;20043;-79
2022/05/18 04:35:26;;;;;;;6.32;5.68;;;14.70;99.90;;;;;;5075841;28;20036;-79
2022/05/18 04:37:52;;;;;;;7.82;6.13;;;14.70;99.90;;;;;;5075175;28;20106;-79
2022/05/18 04:40:18;;;;;;;9.60;6.93;;;14.70;99.90;;;;;;5077584;28;20113;-79
2022/05/18 04:42:44;;;;;;;10.35;6.50;;;14.80;99.90;;;;;;5075585;28;20064;-79
2022/05/18 04:45:14;;;;;;;7.60;5.25;;;14.80;99.90;;;;;;5077481;28;20107;-79
2022/05/18 04:47:40;;;;;;;9.13;6.65;;;14.80;99.90;;;;;;5077182;28;20048;-79
2022/05/18 04:50:06;;;;;;;11.80;7.78;;;14.90;99.90;;;;;;5071751;28;20127;-79
2022/05/18 04:52:32;;;;;;;6.90;6.18;;;14.90;99.90;;;;;;5075489;28;20435;-79
2022/05/18 04:54:58;;;;;;;10.90;6.13;;;14.90;99.90;;;;;;5076581;28;20039;-79
2022/05/18 04:57:24;;;;;;;13.73;8.02;;;15.00;99.90;;;;;;5077321;28;20143;-79
2022/05/18 04:59:49;;;;;;;12.43;7.38;;;15.10;99.90;;;;;;5076013;28;20036;-79
2022/05/18 05:02:16;;;;;;;7.32;6.65;;;15.10;99.90;;;;;;5072339;28;20087;-79
2022/05/18 05:04:42;;;;;;;12.27;7.63;;;15.20;99.90;;;;;;5074100;28;20043;-79
2022/05/18 05:07:08;;;;;;;15.40;9.15;;;15.30;99.90;;;;;;5075991;28;20119;-79
2022/05/18 05:09:34;;;;;;;17.25;8.18;;;15.40;99.90;;;;;;5077146;28;20415;-79
2022/05/18 05:12:00;;;;;;;16.27;8.15;;;15.50;99.90;;;;;;5071534;28;20036;-80
2022/05/18 05:14:26;;;;;;;19.98;9.38;;;15.60;99.90;;;;;;5079049;28;20044;-80
2022/05/18 05:16:52;;;;;;;19.50;8.70;;;15.70;99.90;;;;;;5079943;28;20046;-79
2022/05/18 05:19:17;;;;;;;22.15;10.52;;;15.80;99.90;;;;;;5078632;28;20115;-80
2022/05/18 05:21:44;;;;;;;26.95;9.05;;;16.00;99.90;;;;;;5079232;28;20180;-80
2022/05/18 05:24:10;;;;;;;23.73;11.57;;;16.10;99.90;;;;;;5073637;28;20044;-79
2022/05/18 05:26:36;;;;;;;13.02;8.70;;;16.20;99.90;;;;;;5078725;28;20047;-80
2022/05/18 05:29:02;;;;;;;11.80;9.38;;;16.30;99.90;;;;;;5078622;28;20501;-79
2022/05/18 05:31:27;;;;;;;11.45;8.57;;;16.50;99.90;;;;;;5078980;28;20148;-80
2022/05/18 05:33:53;;;;;;;18.73;8.75;;;16.60;99.90;;;;;;5079035;28;20046;-79
2022/05/18 05:36:19;;;;;;;13.50;9.18;;;16.70;99.90;;;;;;5062793;28;20127;-80
2022/05/18 05:38:45;;;;;;;9.85;8.05;;;16.80;99.90;;;;;;5061641;28;20100;-80
2022/05/18 05:41:11;;;;;;;9.25;7.25;;;17.00;99.90;;;;;;5052723;28;20458;-80
2022/05/18 05:43:36;;;;;;;11.45;8.43;;;17.10;99.90;;;;;;5081563;28;20127;-81
2022/05/18 05:46:05;;;;;;;12.45;9.23;;;17.20;99.90;;;;;;5081642;28;20126;-81
2022/05/18 05:48:32;;;;;;;17.00;8.50;;;17.30;99.90;;;;;;5083907;28;20096;-81
2022/05/18 05:50:59;;;;;;;10.93;8.55;;;17.40;99.90;;;;;;5080820;28;20040;-81
2022/05/18 05:53:25;;;;;;;11.70;8.60;;;17.40;99.90;;;;;;5075286;28;20064;-81
2022/05/18 05:55:51;;;;;;;11.70;8.07;;;17.60;99.90;;;;;;5061328;28;20039;-81
2022/05/18 05:58:18;;;;;;;9.57;8.50;;;17.60;99.90;;;;;;5063077;28;20096;-81
2022/05/18 06:00:45;;;;;;;16.42;9.23;;;17.70;99.90;;;;;;5061640;28;20420;-82
2022/05/18 06:03:13;;;;;;;10.90;8.70;;;17.80;99.90;;;;;;5062813;28;20040;-82
2022/05/18 06:05:38;;;;;;;19.13;9.63;;;17.80;99.90;;;;;;5061951;28;20044;-81
2022/05/18 06:08:04;;;;;;;16.90;8.98;;;17.90;99.90;;;;;;5067709;28;20116;-82
2022/05/18 06:10:30;;;;;;;16.92;8.65;;;18.00;99.90;;;;;;5080324;28;20046;-81
2022/05/18 06:12:56;;;;;;;15.80;8.98;;;18.10;99.90;;;;;;5060871;28;20044;-81
2022/05/18 06:15:21;;;;;;;11.40;7.80;;;18.20;99.90;;;;;;5062094;28;20419;-81
2022/05/18 06:17:47;;;;;;;15.35;8.90;;;18.30;99.90;;;;;;5061697;28;20086;-81
2022/05/18 06:20:12;;;;;;;12.30;9.50;;;18.30;99.90;;;;;;5062095;28;20037;-81
2022/05/18 06:22:38;;;;;;;10.25;8.82;;;18.40;99.90;;;;;;5047258;28;20032;-81
2022/05/18 06:25:04;;;;;;;13.95;9.20;;;18.50;99.90;;;;;;5068773;28;20040;-81
2022/05/18 06:27:29;;;;;;;13.45;9.00;;;18.50;99.90;;;;;;5060856;28;20051;-81
2022/05/18 06:29:55;;;;;;;10.23;9.10;;;18.60;99.90;;;;;;5079554;28;20451;-81
2022/05/18 06:32:20;;;;;;;12.25;9.70;;;18.70;99.90;;;;;;5060198;28;20040;-81
2022/05/18 06:34:46;;;;;;;11.98;8.40;;;18.90;99.90;;;;;;5062183;28;20040;-81
2022/05/18 06:37:12;;;;;;;9.90;8.45;;;19.00;99.90;;;;;;5077022;28;20507;-81
2022/05/18 06:39:38;;;;;;;11.32;10.13;;;19.20;99.90;;;;;;5061912;28;20045;-81
2022/05/18 06:42:04;;;;;;;12.85;9.75;;;19.50;99.90;;;;;;5075853;28;20118;-81
2022/05/18 06:44:30;;;;;;;11.82;10.40;;;19.80;99.90;;;;;;5083627;28;20028;-81
2022/05/18 06:47:00;;;;;;;10.25;8.05;;;20.00;99.90;;;;;;5080151;28;20058;-81
2022/05/18 06:49:28;;;;;;;9.02;8.13;;;20.30;99.90;;;;;;5082407;28;20372;-81
2022/05/18 06:51:57;;;;;;;9.45;8.38;;;20.50;99.90;;;;;;5064676;28;20479;-81
2022/05/18 06:54:23;;;;;;;10.73;8.75;;;20.70;99.90;;;;;;5062467;28;20067;-81
2022/05/18 06:56:48;;;;;;;10.73;7.97;;;21.00;99.90;;;;;;5058595;28;20058;-81
2022/05/18 06:59:15;;;;;;;12.80;7.90;;;21.20;99.90;;;;;;5080603;28;20059;-81
2022/05/18 07:01:42;;;;;;;11.60;8.82;;;21.40;99.90;;;;;;5080991;28;20043;-81
2022/05/18 07:04:10;;;;;;;9.77;8.13;;;21.60;99.90;;;;;;5079144;28;20367;-81
2022/05/18 07:06:39;;;;;;;9.35;8.23;;;21.70;99.90;;;;;;5082630;28;20039;-81
2022/05/18 07:09:08;;;;;;;9.98;7.88;;;21.90;99.90;;;;;;5078177;28;20044;-81
2022/05/18 07:11:36;;;;;;;9.60;8.07;;;22.00;99.90;;;;;;5074725;28;20108;-81
2022/05/18 07:14:03;;;;;;;9.00;7.93;;;22.30;99.90;;;;;;5079600;28;20486;-81
2022/05/18 07:16:29;;;;;;;8.55;7.55;;;22.50;99.90;;;;;;5082173;28;20059;-82
2022/05/18 07:18:55;;;;;;;9.35;7.55;;;22.70;99.90;;;;;;5078596;28;20419;-81
2022/05/18 07:21:21;;;;;;;7.25;6.55;;;22.80;99.90;;;;;;5080544;28;20388;-82
2022/05/18 07:23:47;;;;;;;11.73;5.95;;;23.00;99.90;;;;;;5065128;28;20051;-81
2022/05/18 07:26:15;;;;;;;8.55;6.80;;;23.20;99.90;;;;;;5060163;28;20059;-82
2022/05/18 07:28:41;;;;;;;8.35;7.22;;;23.40;99.90;;;;;;5059361;28;20075;-81
2022/05/18 07:31:07;;;;;;;10.82;6.18;;;23.50;99.90;;;;;;5059267;28;20037;-81
2022/05/18 07:33:33;;;;;;;9.05;6.78;;;23.70;99.90;;;;;;5058654;28;20072;-80
2022/05/18 07:35:59;;;;;;;8.00;6.40;;;23.80;99.90;;;;;;5058793;28;20483;-81
2022/05/18 07:38:27;;;;;;;8.77;6.90;;;24.00;99.90;;;;;;5058936;28;20060;-80
2022/05/18 07:40:53;;;;;;;7.60;6.93;;;24.10;99.90;;;;;;5075929;28;20043;-81
2022/05/18 07:43:19;;;;;;;10.52;6.93;;;24.20;99.90;;;;;;5078234;28;20036;-80
2022/05/18 07:45:46;;;;;;;8.13;7.32;;;24.40;99.90;;;;;;5078024;28;20036;-80
2022/05/18 07:48:11;;;;;;;8.15;7.35;;;24.60;99.90;;;;;;5082202;28;20118;-80
2022/05/18 07:50:37;;;;;;;9.55;5.82;;;24.70;99.90;;;;;;5081238;28;20450;-80
2022/05/18 07:53:03;;;;;;;7.82;7.03;;;24.70;99.90;;;;;;5081313;28;20043;-81
2022/05/18 07:55:28;;;;;;;7.57;5.97;;;24.70;99.90;;;;;;5071069;28;20043;-80
2022/05/18 07:57:54;;;;;;;7.45;5.50;;;24.80;99.90;;;;;;5064535;28;20431;-80
2022/05/18 08:00:23;;;;;;;10.30;5.97;;;24.90;99.90;;;;;;5080085;28;20069;-80
2022/05/18 08:02:48;;;;;;;13.80;7.45;;;25.20;99.90;;;;;;5080312;28;20093;-80
2022/05/18 08:05:14;;;;;;;6.13;5.53;;;25.30;99.90;;;;;;5079986;28;20448;-80
2022/05/18 08:07:45;;;;;;;8.52;6.32;;;25.40;99.90;;;;;;5069677;28;20070;-80
2022/05/18 08:15:44;;;;;;;6.82;5.70;;;26.00;99.90;;;;;;5079005;28;20122;-80
2022/05/18 08:18:10;;;;;;;4.88;4.38;;;26.20;98.90;;;;;;5076672;28;20106;-80
2022/05/18 08:20:41;;;;;;;6.32;4.53;;;26.30;98.60;;;;;;5061259;28;20497;-80
2022/05/18 08:23:07;;;;;;;5.13;4.22;;;26.50;98.70;;;;;;5077294;28;20463;-79
2022/05/18 08:25:34;;;;;;;9.23;5.05;;;26.60;97.10;;;;;;5060569;28;20048;-80
2022/05/18 08:27:59;;;;;;;5.93;4.13;;;26.70;94.50;;;;;;5057801;28;20267;-79
2022/05/18 08:30:25;;;;;;;7.38;4.97;;;26.80;94.50;;;;;;5058786;28;20076;-79
2022/05/18 08:32:50;;;;;;;9.50;5.13;;;26.90;93.40;;;;;;5057184;28;20568;-79
2022/05/18 08:35:17;;;;;;;7.53;4.63;;;26.90;92.60;;;;;;5040865;28;20051;-80
2022/05/18 08:37:48;;;;;;;6.47;3.55;;;27.00;92.40;;;;;;5071609;28;20040;-79
2022/05/18 08:40:28;;;;;;;6.75;4.18;;;27.10;92.20;;;;;;5069689;28;20090;-80
2022/05/18 08:43:00;;;;;;;5.72;4.32;;;27.30;90.50;;;;;;5078150;28;20032;-80
2022/05/18 08:45:31;;;;;;;12.68;5.40;;;27.40;88.60;;;;;;5077759;28;20060;-79
2022/05/18 08:48:39;;;;;;;5.22;4.47;;;27.50;86.10;;;;;;5077303;28;20069;-79
2022/05/18 08:51:16;;;;;;;14.73;5.30;;;27.70;85.80;;;;;;5074019;28;20495;-80
2022/05/18 08:53:57;;;;;;;6.07;4.35;;;27.80;85.50;;;;;;5058140;28;20052;-80
2022/05/18 08:56:31;;;;;;;5.18;3.08;;;28.00;83.70;;;;;;5077481;28;20294;-79
2022/05/18 08:58:57;;;;;;;2.90;2.22;;;28.20;83.00;;;;;;5060231;28;20046;-79
2022/05/18 09:01:35;;;;;;;4.00;2.08;;;28.40;79.40;;;;;;5061290;28;20079;-80
2022/05/18 09:04:38;;;;;;;4.55;2.60;;;28.60;76.60;;;;;;5096570;28;20043;-79
2022/05/18 09:07:07;;;;;;;3.17;2.95;;;28.80;76.90;;;;;;5077737;28;20051;-79
2022/05/18 09:12:37;;;;;;;4.13;2.72;;;29.30;74.30;;;;;;5058284;28;20051;-79
2022/05/18 09:15:08;;;;;;;5.35;3.25;;;29.50;75.20;;;;;;5059115;28;20044;-80
2022/05/18 09:18:04;;;;;;;4.30;2.10;;;29.70;73.40;;;;;;5058385;28;20041;-80
2022/05/18 09:20:39;;;;;;;7.25;3.58;;;30.00;73.80;;;;;;5059988;28;20044;-80
2022/05/18 09:23:14;;;;;;;;;;;30.30;71.90;;;;;;5062349;28;20036;-80
2022/05/18 09:25:47;;;;;;;2.80;1.67;;;30.40;67.70;;;;;;5063265;28;19952;-79
2022/05/18 09:28:50;;;;;;;3.90;2.47;;;30.40;69.70;;;;;;5062690;28;20044;-80
2022/05/18 09:31:21;;;;;;;5.22;2.60;;;30.60;70.00;;;;;;5061823;28;20093;-79
2022/05/18 09:34:16;;;;;;;6.13;2.60;;;30.70;67.00;;;;;;5079327;28;20048;-80
2022/05/18 09:37:14;;;;;;;5.32;4.03;;;30.70;64.00;;;;;;5078497;28;20036;-80
2022/05/18 09:39:46;;;;;;;5.88;3.22;;;30.60;66.10;;;;;;5055966;28;20486;-80
2022/05/18 09:42:16;;;;;;;4.68;2.92;;;30.70;68.30;;;;;;5097003;28;20036;-80
2022/05/18 09:44:49;;;;;;;8.05;3.40;;;30.80;66.60;;;;;;5079272;28;20398;-80
2022/05/18 09:47:20;;;;;;;5.93;3.75;;;30.90;64.90;;;;;;5079144;28;20067;-80
2022/05/18 09:49:50;;;;;;;7.43;4.00;;;30.70;62.30;;;;;;5078724;28;20040;-80
2022/05/18 09:52:20;;;;;;;5.07;3.90;;;30.60;63.60;;;;;;5061332;28;20521;-79
2022/05/18 09:54:46;;;;;;;6.88;3.45;;;30.50;63.10;;;;;;5071347;28;20048;-80
2022/05/18 09:57:23;;;;;;;4.18;3.13;;;30.30;63.50;;;;;;5062951;28;20040;-80
2022/05/18 09:59:55;;;;;;;5.18;4.25;;;30.50;65.00;;;;;;5079284;28;20117;-80
2022/05/18 10:07:58;;;;;;;5.80;4.20;;;31.40;65.70;;;;;;5077931;28;20052;-80
2022/05/18 10:10:38;;;;;;;5.05;4.13;;;31.70;63.20;;;;;;5079712;28;20442;-80
2022/05/18 10:13:14;;;;;;;5.05;3.08;;;31.80;60.40;;;;;;5078477;28;20071;-80
2022/05/18 10:15:47;;;;;;;6.03;2.78;;;32.00;62.10;;;;;;5080764;28;20044;-80
2022/05/18 10:18:17;;;;;;;3.05;1.75;;;32.20;60.80;;;;;;5078657;28;20058;-80
2022/05/18 10:21:13;;;;;;;4.03;2.25;;;32.40;60.40;;;;;;5072656;28;20040;-80
2022/05/18 10:23:51;;;;;;;7.28;3.22;;;32.40;59.50;;;;;;5059694;28;20048;-80
2022/05/18 10:26:25;;;;;;;2.42;1.95;;;32.50;59.90;;;;;;5058359;28;20044;-80
2022/05/18 10:29:00;;;;;;;5.65;2.20;;;32.60;58.80;;;;;;5041995;28;20062;-80
2022/05/18 10:31:30;;;;;;;6.20;3.60;;;32.20;56.90;;;;;;5057713;28;20123;-80
2022/05/18 10:34:25;;;;;;;5.10;3.30;;;31.80;56.90;;;;;;5042368;28;20044;-80
2022/05/18 10:36:55;;;;;;;7.13;3.13;;;31.70;55.80;;;;;;5058452;28;20355;-80
2022/05/18 10:39:47;;;;;;;4.40;3.90;;;31.70;57.70;;;;;;5058541;28;20036;-79
2022/05/18 10:42:21;;;;;;;4.43;4.00;;;31.80;59.10;;;;;;5058478;28;20139;-79
2022/05/18 10:44:47;;;;;;;4.63;2.40;;;31.90;58.60;;;;;;5057463;28;20040;-81
2022/05/18 10:47:20;;;;;;;3.22;2.85;;;31.90;57.50;;;;;;5058936;28;20059;-80
2022/05/18 10:49:46;;;;;;;5.38;3.47;;;32.10;57.30;;;;;;5057610;28;20055;-81
2022/05/18 10:52:16;;;;;;;4.70;2.10;;;32.00;56.60;;;;;;5078967;28;20115;-80
2022/05/18 10:55:14;;;;;;;5.15;2.20;;;32.00;57.70;;;;;;5078001;28;20047;-80
2022/05/18 10:57:40;;;;;;;3.25;3.03;;;32.40;56.60;;;;;;5059933;28;20052;-80
2022/05/18 11:00:15;;;;;;;6.07;3.83;;;32.30;57.60;;;;;;5078456;28;20496;-80
2022/05/18 11:03:06;;;;;;;6.78;2.78;;;32.50;57.40;;;;;;5078182;28;20222;-80
2022/05/18 11:05:43;;;;;;;4.05;3.33;;;32.70;57.10;;;;;;5072111;28;20230;-80
2022/05/18 11:08:14;;;;;;;6.68;3.80;;;32.90;55.20;;;;;;5071236;28;20048;-80
2022/05/18 11:10:52;;;;;;;9.23;4.82;;;32.90;55.70;;;;;;5078765;28;20048;-80
2022/05/18 11:13:32;;;;;;;6.57;3.33;;;32.70;54.70;;;;;;5077376;28;20032;-80
2022/05/18 11:16:25;;;;;;;3.85;3.35;;;32.00;56.00;;;;;;5077936;28;20040;-80
2022/05/18 11:19:13;;;;;;;5.63;3.38;;;31.70;55.30;;;;;;5077715;28;20376;-80
2022/05/18 11:22:16;;;;;;;5.32;3.45;;;31.90;57.20;;;;;;5059119;28;20097;-80
2022/05/18 11:25:01;;;;;;;5.00;3.08;;;32.10;54.60;;;;;;5041511;28;20043;-79
2022/05/18 11:27:51;;;;;;;5.88;4.10;;;32.20;54.20;;;;;;5058186;28;20048;-80
2022/05/18 11:30:36;;;;;;;5.40;4.28;;;32.20;54.80;;;;;;5058164;28;20565;-81
2022/05/18 11:33:26;;;;;;;5.03;4.60;;;31.90;55.10;;;;;;5057969;28;20033;-80
2022/05/18 11:36:18;;;;;;;5.75;4.97;;;31.40;55.50;;;;;;5075084;28;20155;-80
2022/05/18 11:39:10;;;;;;;5.40;4.55;;;31.40;56.40;;;;;;5059382;28;20124;-80
2022/05/18 11:42:20;;;;;;;6.40;4.05;;;31.50;55.90;;;;;;5058400;28;20033;-80
2022/05/18 11:45:11;;;;;;;9.77;5.40;;;31.80;56.00;;;;;;5058708;28;20399;-81
2022/05/18 11:47:52;;;;;;;6.85;5.40;;;31.70;56.20;;;;;;5059740;28;20125;-81
2022/05/18 11:50:23;;;;;;;5.72;2.60;;;32.00;56.20;;;;;;5061178;28;20040;-80
2022/05/18 11:53:17;;;;;;;5.68;5.07;;;32.00;56.40;;;;;;5047403;28;20048;-81
2022/05/18 11:56:16;;;;;;;4.18;3.78;;;32.30;55.30;;;;;;5065324;28;20063;-80
2022/05/18 11:59:44;;;;;;;6.88;3.90;;;32.90;56.60;;;;;;5065083;28;20047;-81
2022/05/18 12:02:48;;;;;;;6.28;4.22;;;33.10;54.10;;;;;;5064566;28;20142;-80
2022/05/18 12:05:46;;;;;;;6.20;4.50;;;32.80;54.80;;;;;;5061972;28;20470;-81
2022/05/18 12:08:50;;;;;;;4.82;3.92;;;33.10;54.50;;;;;;5062441;28;20045;-81
2022/05/18 12:11:37;;;;;;;4.45;2.97;;;33.30;54.10;;;;;;5043682;28;20070;-80
2022/05/18 12:14:29;;;;;;;7.47;4.25;;;33.30;55.40;;;;;;5062242;28;20032;-81
2022/05/18 12:17:15;;;;;;;4.93;3.60;;;32.90;53.50;;;;;;5062376;28;20052;-81
2022/05/18 12:20:05;;;;;;;7.63;4.38;;;32.50;54.20;;;;;;5081680;28;20051;-80
2022/05/18 12:22:44;;;;;;;5.70;4.43;;;32.50;54.60;;;;;;5081342;28;20036;-81
2022/05/18 12:25:13;;;;;;;5.35;4.10;;;32.40;54.20;;;;;;5080538;28;20048;-80
2022/05/18 12:27:39;;;;;;;5.43;4.00;;;32.30;53.90;;;;;;5080449;28;20094;-80
2022/05/18 12:30:09;;;;;;;4.25;3.85;;;32.20;54.70;;;;;;5080377;28;20062;-81
2022/05/18 12:32:35;;;;;;;8.50;3.45;;;32.20;53.90;;;;;;5082816;28;20071;-80
2022/05/18 12:35:16;;;;;;;5.97;2.97;;;32.00;54.00;;;;;;5082227;28;20028;-80
2022/05/18 12:38:06;;;;;;;7.57;3.33;;;31.70;53.90;;;;;;5084003;28;20036;-80
2022/05/18 12:40:45;;;;;;;4.20;2.50;;;31.30;54.90;;;;;;5083270;28;20119;-80
2022/05/18 12:43:33;;;;;;;4.38;2.72;;;31.20;55.10;;;;;;5082544;28;20032;-81
2022/05/18 12:46:10;;;;;;;3.30;1.95;;;30.80;54.30;;;;;;5083341;28;20051;-80
2022/05/18 12:48:42;;;;;;;4.70;2.13;;;30.50;55.20;;;;;;5082897;28;20050;-80
2022/05/18 12:51:35;;;;;;;3.95;2.05;;;30.30;55.60;;;;;;5083163;28;20062;-79
2022/05/18 12:54:23;;;;;;;5.05;2.90;;;30.30;56.00;;;;;;5038587;28;20106;-81
2022/05/18 12:57:11;;;;;;;5.30;2.97;;;30.30;56.40;;;;;;5062098;28;20448;-80
2022/05/18 12:59:57;;;;;;;4.47;4.07;;;30.20;55.80;;;;;;5044201;28;20049;-80
2022/05/18 13:02:43;;;;;;;7.20;4.15;;;30.30;56.80;;;;;;5061691;28;20045;-80
2022/05/18 13:05:31;;;;;;;5.50;3.88;;;30.30;57.70;;;;;;5062146;28;20153;-80
2022/05/18 13:08:15;;;;;;;4.88;3.28;;;30.10;57.50;;;;;;5061478;28;20391;-80
2022/05/18 13:11:00;;;;;;;5.10;2.72;;;29.80;57.30;;;;;;5056051;28;20518;-78
2022/05/18 13:13:26;;;;;;;2.53;0.95;;;29.40;58.00;;;;;;5039591;28;20071;-79
2022/05/18 13:15:54;;;;;;;2.30;1.05;;;29.40;58.20;;;;;;5056111;28;20091;-78
2022/05/18 13:18:28;;;;;;;3.55;1.40;;;29.40;57.80;;;;;;5056165;28;20170;-78
2022/05/18 13:21:15;;;;;;;2.78;1.63;;;29.30;58.30;;;;;;5039612;28;20036;-78
2022/05/18 13:24:02;;;;;;;5.78;2.28;;;29.20;59.80;;;;;;5059533;28;20032;-78
2022/05/18 13:26:43;;;;;;;5.35;2.40;;;29.40;61.60;;;;;;5059971;28;20044;-78
2022/05/18 13:29:19;;;;;;;3.45;1.77;;;29.50;61.00;;;;;;5076369;28;20052;-78